Bookmark and Share
Track history (hours):
 

Hegina

Last reported at 2014-Apr-15 21:30 UTC. Time now 2014-Apr-18 05:32 UTC.
Position N 37°57' E 024°37'.

Length 138 m; draft 6.3 m.

Type: Cargo ship. MMSI: 372427000.

NotesDate/timePositionNaut miles runAvg speedWind from/ knotsBaromVisibWave heightAir tempDewpointWater temp
2014-Apr-15 21:30N 37°57' E 024°37'1313.3
2014-Apr-15 20:31N 37°48' E 024°25'1713.0
2014-Apr-15 19:13N 37°37' E 024°09'1213.2
2014-Apr-15 18:18N 37°38' E 023°53'1012.9
2014-Apr-15 17:33N 37°41' E 023°42'1312.6
2014-Apr-15 16:33N 37°52' E 023°34'2 2.0
2014-Apr-15 15:33N 37°53' E 023°32'0 0.0
2014-Apr-15 14:33N 37°53' E 023°32'0 0.0
2014-Apr-15 12:34N 37°53' E 023°32'0 0.0
2014-Apr-15 11:31N 37°53' E 023°32'0 0.0
2014-Apr-15 10:34N 37°53' E 023°32'0 0.0
2014-Apr-15 09:34N 37°53' E 023°32'0 0.0
2014-Apr-15 08:34N 37°53' E 023°32'0 0.0
2014-Apr-15 07:34N 37°53' E 023°32'0 0.1
2014-Apr-15 06:34N 37°53' E 023°32'0 0.2
2014-Apr-15 05:34N 37°53' E 023°32'2110.2
2014-Apr-15 03:33N 37°35' E 023°43'40612.2
2014-Apr-13 18:08N 36°33' E 015°20'3513.5
2014-Apr-13 15:32N 36°37' E 014°37'1414.0
2014-Apr-13 14:33N 36°39' E 014°20'1313.3
2014-Apr-13 13:33N 36°41' E 014°04'1413.4
2014-Apr-13 12:31N 36°44' E 013°47'1413.7
2014-Apr-13 11:31N 36°47' E 013°30'9313.3
2014-Apr-13 04:33N 37°13' E 011°39'1313.3
2014-Apr-13 03:33N 37°17' E 011°23'1413.6
2014-Apr-13 02:33N 37°23' E 011°07'1413.6
2014-Apr-13 01:33N 37°27' E 010°51'1413.6
2014-Apr-13 00:33N 37°30' E 010°34'1413.6
2014-Apr-12 23:30N 37°34' E 010°17'1313.8
2014-Apr-12 22:33N 37°34' E 010°00'1413.9
2014-Apr-12 21:33N 37°30' E 009°44'1313.3
2014-Apr-12 20:33N 37°26' E 009°28'1312.7
2014-Apr-12 19:32N 37°22' E 009°12'1312.9
2014-Apr-12 18:32N 37°19' E 008°57'1313.0
2014-Apr-12 17:32N 37°14' E 008°41'1212.4
2014-Apr-12 16:33N 37°09' E 008°27'1211.8
2014-Apr-12 15:31N 37°04' E 008°13'2311.7
2014-Apr-12 13:33N 36°54' E 007°47'  

Dump ship's entire track history

sailing weather and tide predictions

Hegina — 3ETX2 — position and weather